sensor_id;sensor_type;location;lat;lon;timestamp;P1;P2;P0
35654;PMS1003;21773;50.010;19.972;2023-09-12T00:02:48;30.00;26.00;22.00
35654;PMS1003;21773;50.010;19.972;2023-09-12T00:05:52;30.00;27.20;22.00
35654;PMS1003;21773;50.010;19.972;2023-09-12T00:08:55;28.40;27.40;22.40
35654;PMS1003;21773;50.010;19.972;2023-09-12T00:11:58;32.00;29.00;23.00
35654;PMS1003;21773;50.010;19.972;2023-09-12T00:15:02;31.50;29.00;22.50
35654;PMS1003;21773;50.010;19.972;2023-09-12T00:18:07;29.40;28.00;22.80
35654;PMS1003;21773;50.010;19.972;2023-09-12T00:21:11;29.20;27.20;22.00
35654;PMS1003;21773;50.010;19.972;2023-09-12T00:24:14;29.80;27.20;22.00
35654;PMS1003;21773;50.010;19.972;2023-09-12T00:27:18;29.40;27.60;23.00
35654;PMS1003;21773;50.010;19.972;2023-09-12T00:30:21;29.60;27.60;22.60
35654;PMS1003;21773;50.010;19.972;2023-09-12T00:33:26;27.60;25.00;21.00
35654;PMS1003;21773;50.010;19.972;2023-09-12T00:36:29;29.00;24.40;20.00
35654;PMS1003;21773;50.010;19.972;2023-09-12T00:39:34;28.00;25.75;20.50
35654;PMS1003;21773;50.010;19.972;2023-09-12T00:42:38;30.00;28.00;22.00
35654;PMS1003;21773;50.010;19.972;2023-09-12T00:45:42;30.00;26.00;21.60
35654;PMS1003;21773;50.010;19.972;2023-09-12T00:48:46;26.20;24.80;21.00
35654;PMS1003;21773;50.010;19.972;2023-09-12T00:51:51;27.33;25.33;21.33
35654;PMS1003;21773;50.010;19.972;2023-09-12T00:54:55;27.60;26.40;22.00
35654;PMS1003;21773;50.010;19.972;2023-09-12T00:58:00;24.50;23.50;20.00
35654;PMS1003;21773;50.010;19.972;2023-09-12T01:01:04;25.80;24.00;20.00
35654;PMS1003;21773;50.010;19.972;2023-09-12T01:04:09;26.00;25.00;21.00
35654;PMS1003;21773;50.010;19.972;2023-09-12T01:07:33;27.40;24.40;20.00
35654;PMS1003;21773;50.010;19.972;2023-09-12T01:10:37;24.50;23.00;19.00
35654;PMS1003;21773;50.010;19.972;2023-09-12T01:13:40;29.00;25.00;20.60
35654;PMS1003;21773;50.010;19.972;2023-09-12T01:16:43;28.25;24.00;20.00
35654;PMS1003;21773;50.010;19.972;2023-09-12T01:19:48;27.00;25.00;20.33
35654;PMS1003;21773;50.010;19.972;2023-09-12T01:23:06;26.00;23.00;20.00
35654;PMS1003;21773;50.010;19.972;2023-09-12T01:26:27;25.00;23.00;20.00
35654;PMS1003;21773;50.010;19.972;2023-09-12T01:29:34;25.80;24.80;20.00
35654;PMS1003;21773;50.010;19.972;2023-09-12T01:32:38;25.25;22.25;18.50
35654;PMS1003;21773;50.010;19.972;2023-09-12T01:35:42;25.00;22.50;20.00
35654;PMS1003;21773;50.010;19.972;2023-09-12T01:38:48;24.00;22.60;20.00
35654;PMS1003;21773;50.010;19.972;2023-09-12T01:41:51;27.00;25.00;20.00
35654;PMS1003;21773;50.010;19.972;2023-09-12T01:44:58;24.20;23.00;18.00
35654;PMS1003;21773;50.010;19.972;2023-09-12T01:48:04;28.60;25.80;21.00
35654;PMS1003;21773;50.010;19.972;2023-09-12T01:51:09;25.25;22.00;18.50
35654;PMS1003;21773;50.010;19.972;2023-09-12T01:54:13;27.20;24.40;20.40
35654;PMS1003;21773;50.010;19.972;2023-09-12T01:57:17;23.00;21.25;18.00
35654;PMS1003;21773;50.010;19.972;2023-09-12T02:00:24;28.00;24.00;20.00
35654;PMS1003;21773;50.010;19.972;2023-09-12T02:03:28;21.00;19.00;16.80
35654;PMS1003;21773;50.010;19.972;2023-09-12T02:06:31;26.60;23.60;19.60
35654;PMS1003;21773;50.010;19.972;2023-09-12T02:09:34;25.40;21.20;19.60
35654;PMS1003;21773;50.010;19.972;2023-09-12T02:12:39;22.40;21.00;18.60
35654;PMS1003;21773;50.010;19.972;2023-09-12T02:15:44;24.40;21.40;18.40
35654;PMS1003;21773;50.010;19.972;2023-09-12T02:18:47;22.00;21.00;18.00
35654;PMS1003;21773;50.010;19.972;2023-09-12T02:21:50;23.00;22.00;19.00
35654;PMS1003;21773;50.010;19.972;2023-09-12T02:24:53;25.00;21.80;18.80
35654;PMS1003;21773;50.010;19.972;2023-09-12T02:27:57;23.00;22.00;18.00
35654;PMS1003;21773;50.010;19.972;2023-09-12T02:31:01;22.00;20.50;18.00
35654;PMS1003;21773;50.010;19.972;2023-09-12T02:34:05;22.20;21.00;19.00
35654;PMS1003;21773;50.010;19.972;2023-09-12T02:37:08;22.00;20.40;19.00
35654;PMS1003;21773;50.010;19.972;2023-09-12T02:40:11;21.60;19.60;17.60
35654;PMS1003;21773;50.010;19.972;2023-09-12T02:43:16;23.75;22.25;19.00
35654;PMS1003;21773;50.010;19.972;2023-09-12T02:46:20;22.80;21.20;18.20
35654;PMS1003;21773;50.010;19.972;2023-09-12T02:49:24;22.00;21.00;19.00
35654;PMS1003;21773;50.010;19.972;2023-09-12T02:52:27;22.00;21.00;18.40
35654;PMS1003;21773;50.010;19.972;2023-09-12T02:55:30;23.00;21.40;18.00
35654;PMS1003;21773;50.010;19.972;2023-09-12T02:58:33;22.00;20.60;19.20
35654;PMS1003;21773;50.010;19.972;2023-09-12T03:01:38;26.25;22.75;19.50
35654;PMS1003;21773;50.010;19.972;2023-09-12T03:04:42;20.80;19.80;16.80
35654;PMS1003;21773;50.010;19.972;2023-09-12T03:07:45;22.40;20.40;18.00
35654;PMS1003;21773;50.010;19.972;2023-09-12T03:10:52;23.60;21.60;18.60
35654;PMS1003;21773;50.010;19.972;2023-09-12T03:13:57;22.40;21.40;18.00
35654;PMS1003;21773;50.010;19.972;2023-09-12T03:17:01;21.60;20.60;19.00
35654;PMS1003;21773;50.010;19.972;2023-09-12T03:20:06;23.00;21.00;18.00
35654;PMS1003;21773;50.010;19.972;2023-09-12T03:23:10;25.00;23.00;20.00
35654;PMS1003;21773;50.010;19.972;2023-09-12T03:26:14;26.80;24.40;20.00
35654;PMS1003;21773;50.010;19.972;2023-09-12T03:29:17;24.00;23.60;20.00
35654;PMS1003;21773;50.010;19.972;2023-09-12T03:32:23;20.75;19.75;17.75
35654;PMS1003;21773;50.010;19.972;2023-09-12T03:35:26;23.20;22.20;19.60
35654;PMS1003;21773;50.010;19.972;2023-09-12T03:38:30;22.25;22.00;19.00
35654;PMS1003;21773;50.010;19.972;2023-09-12T03:41:34;23.00;21.00;19.00
35654;PMS1003;21773;50.010;19.972;2023-09-12T03:44:38;21.40;20.00;16.20
35654;PMS1003;21773;50.010;19.972;2023-09-12T03:47:42;23.00;22.00;18.00
35654;PMS1003;21773;50.010;19.972;2023-09-12T03:50:50;25.00;22.00;19.40
35654;PMS1003;21773;50.010;19.972;2023-09-12T03:53:53;24.00;22.00;17.00
35654;PMS1003;21773;50.010;19.972;2023-09-12T03:56:56;25.00;23.00;20.00
35654;PMS1003;21773;50.010;19.972;2023-09-12T03:59:59;22.60;22.00;19.00
35654;PMS1003;21773;50.010;19.972;2023-09-12T04:03:15;20.00;19.00;17.00
35654;PMS1003;21773;50.010;19.972;2023-09-12T04:06:19;24.00;21.00;17.40
35654;PMS1003;21773;50.010;19.972;2023-09-12T04:09:22;23.00;21.00;18.00
35654;PMS1003;21773;50.010;19.972;2023-09-12T04:12:25;20.60;18.60;17.00
35654;PMS1003;21773;50.010;19.972;2023-09-12T04:15:28;23.50;22.00;19.00
35654;PMS1003;21773;50.010;19.972;2023-09-12T04:18:34;21.00;20.00;17.00
35654;PMS1003;21773;50.010;19.972;2023-09-12T04:21:37;20.25;18.00;15.25
35654;PMS1003;21773;50.010;19.972;2023-09-12T04:24:41;24.00;22.00;19.00
35654;PMS1003;21773;50.010;19.972;2023-09-12T04:27:44;24.40;22.60;20.00
35654;PMS1003;21773;50.010;19.972;2023-09-12T04:30:48;21.60;21.00;19.00
35654;PMS1003;21773;50.010;19.972;2023-09-12T04:33:53;23.20;21.80;18.00
35654;PMS1003;21773;50.010;19.972;2023-09-12T04:36:56;23.25;22.25;19.00
35654;PMS1003;21773;50.010;19.972;2023-09-12T04:40:00;24.00;21.75;17.75
35654;PMS1003;21773;50.010;19.972;2023-09-12T04:43:07;21.00;20.00;17.00
35654;PMS1003;21773;50.010;19.972;2023-09-12T04:46:10;25.00;23.00;20.00
35654;PMS1003;21773;50.010;19.972;2023-09-12T04:49:15;23.00;22.00;19.00
35654;PMS1003;21773;50.010;19.972;2023-09-12T04:52:18;25.60;23.60;19.60
35654;PMS1003;21773;50.010;19.972;2023-09-12T04:55:22;22.00;21.00;18.00
35654;PMS1003;21773;50.010;19.972;2023-09-12T04:58:25;25.20;23.80;20.00
35654;PMS1003;21773;50.010;19.972;2023-09-12T05:01:28;23.25;22.25;17.25
35654;PMS1003;21773;50.010;19.972;2023-09-12T05:04:33;23.40;20.40;17.40
35654;PMS1003;21773;50.010;19.972;2023-09-12T05:07:36;24.80;23.80;20.00
35654;PMS1003;21773;50.010;19.972;2023-09-12T05:10:39;24.40;22.40;20.00
35654;PMS1003;21773;50.010;19.972;2023-09-12T05:13:42;26.40;23.40;20.00
35654;PMS1003;21773;50.010;19.972;2023-09-12T05:16:46;23.67;22.00;17.67
35654;PMS1003;21773;50.010;19.972;2023-09-12T05:19:50;23.40;22.00;19.00
35654;PMS1003;21773;50.010;19.972;2023-09-12T05:22:53;20.40;19.00;16.00
35654;PMS1003;21773;50.010;19.972;2023-09-12T05:25:58;22.00;21.00;18.00
35654;PMS1003;21773;50.010;19.972;2023-09-12T05:29:02;24.60;23.60;20.00
35654;PMS1003;21773;50.010;19.972;2023-09-12T05:32:07;25.00;21.00;19.00
35654;PMS1003;21773;50.010;19.972;2023-09-12T05:35:13;20.75;20.00;17.50
35654;PMS1003;21773;50.010;19.972;2023-09-12T05:38:24;26.60;24.40;20.00
35654;PMS1003;21773;50.010;19.972;2023-09-12T05:41:28;21.20;20.00;18.00
35654;PMS1003;21773;50.010;19.972;2023-09-12T05:44:31;22.00;20.00;18.00
35654;PMS1003;21773;50.010;19.972;2023-09-12T05:47:35;22.60;21.00;18.00
35654;PMS1003;21773;50.010;19.972;2023-09-12T05:50:39;19.25;18.00;16.25
35654;PMS1003;21773;50.010;19.972;2023-09-12T05:53:42;24.00;21.00;17.60
35654;PMS1003;21773;50.010;19.972;2023-09-12T05:56:46;21.00;19.00;16.00
35654;PMS1003;21773;50.010;19.972;2023-09-12T05:59:50;20.00;18.80;16.00
35654;PMS1003;21773;50.010;19.972;2023-09-12T06:02:53;19.00;18.00;16.00
35654;PMS1003;21773;50.010;19.972;2023-09-12T06:05:58;23.00;22.50;18.50
35654;PMS1003;21773;50.010;19.972;2023-09-12T06:09:01;19.75;19.00;17.00
35654;PMS1003;21773;50.010;19.972;2023-09-12T06:12:05;21.00;19.00;16.60
35654;PMS1003;21773;50.010;19.972;2023-09-12T06:15:09;19.00;17.00;14.00
35654;PMS1003;21773;50.010;19.972;2023-09-12T06:18:13;22.00;20.60;17.00
35654;PMS1003;21773;50.010;19.972;2023-09-12T06:21:18;22.00;19.40;17.00
35654;PMS1003;21773;50.010;19.972;2023-09-12T06:24:22;18.00;16.75;14.25
35654;PMS1003;21773;50.010;19.972;2023-09-12T06:27:26;19.20;17.80;15.80
35654;PMS1003;21773;50.010;19.972;2023-09-12T06:30:29;19.00;18.00;14.60
35654;PMS1003;21773;50.010;19.972;2023-09-12T06:33:32;17.50;16.25;15.00
35654;PMS1003;21773;50.010;19.972;2023-09-12T06:36:37;21.00;19.00;16.40
35654;PMS1003;21773;50.010;19.972;2023-09-12T06:39:43;22.00;18.40;16.00
35654;PMS1003;21773;50.010;19.972;2023-09-12T06:42:46;18.40;17.00;14.40
35654;PMS1003;21773;50.010;19.972;2023-09-12T06:45:50;18.00;17.00;14.00
35654;PMS1003;21773;50.010;19.972;2023-09-12T06:48:53;20.80;19.20;15.80
35654;PMS1003;21773;50.010;19.972;2023-09-12T06:51:57;18.00;16.50;15.00
35654;PMS1003;21773;50.010;19.972;2023-09-12T06:55:01;18.20;17.00;14.00
35654;PMS1003;21773;50.010;19.972;2023-09-12T06:58:04;17.00;16.00;14.75
35654;PMS1003;21773;50.010;19.972;2023-09-12T07:01:08;23.40;20.40;18.00
35654;PMS1003;21773;50.010;19.972;2023-09-12T07:04:11;18.00;16.40;14.40
35654;PMS1003;21773;50.010;19.972;2023-09-12T07:07:21;15.60;15.00;13.60
35654;PMS1003;21773;50.010;19.972;2023-09-12T07:10:24;18.00;17.00;15.00
35654;PMS1003;21773;50.010;19.972;2023-09-12T07:13:28;17.40;16.40;15.00
35654;PMS1003;21773;50.010;19.972;2023-09-12T07:16:32;16.60;16.60;14.00
35654;PMS1003;21773;50.010;19.972;2023-09-12T07:19:35;17.00;16.00;14.50
35654;PMS1003;21773;50.010;19.972;2023-09-12T07:22:39;17.00;15.00;13.25
35654;PMS1003;21773;50.010;19.972;2023-09-12T07:25:43;19.40;17.40;14.40
35654;PMS1003;21773;50.010;19.972;2023-09-12T07:28:46;20.00;16.00;14.00
35654;PMS1003;21773;50.010;19.972;2023-09-12T07:31:51;21.00;16.00;13.00
35654;PMS1003;21773;50.010;19.972;2023-09-12T07:34:55;18.60;17.00;15.60
35654;PMS1003;21773;50.010;19.972;2023-09-12T07:38:00;13.20;13.20;11.40
35654;PMS1003;21773;50.010;19.972;2023-09-12T07:41:03;17.00;16.00;14.20
35654;PMS1003;21773;50.010;19.972;2023-09-12T07:44:06;19.75;18.75;15.75
35654;PMS1003;21773;50.010;19.972;2023-09-12T07:47:12;16.00;16.00;13.00
35654;PMS1003;21773;50.010;19.972;2023-09-12T07:50:16;19.00;17.00;14.00
35654;PMS1003;21773;50.010;19.972;2023-09-12T07:53:21;17.00;15.50;15.00
35654;PMS1003;21773;50.010;19.972;2023-09-12T07:56:24;18.00;16.40;14.60
35654;PMS1003;21773;50.010;19.972;2023-09-12T07:59:27;16.00;16.00;14.00
35654;PMS1003;21773;50.010;19.972;2023-09-12T08:02:30;15.00;15.00;13.00
35654;PMS1003;21773;50.010;19.972;2023-09-12T08:05:33;15.20;15.20;13.60
35654;PMS1003;21773;50.010;19.972;2023-09-12T08:08:38;16.00;14.50;13.00
35654;PMS1003;21773;50.010;19.972;2023-09-12T08:11:45;19.00;16.00;14.00
35654;PMS1003;21773;50.010;19.972;2023-09-12T08:14:49;18.00;16.00;14.00
35654;PMS1003;21773;50.010;19.972;2023-09-12T08:17:53;16.50;15.50;13.25
35654;PMS1003;21773;50.010;19.972;2023-09-12T08:20:57;16.60;16.00;14.00
35654;PMS1003;21773;50.010;19.972;2023-09-12T08:24:02;18.20;17.00;14.80
35654;PMS1003;21773;50.010;19.972;2023-09-12T08:27:05;15.50;14.50;12.00
35654;PMS1003;21773;50.010;19.972;2023-09-12T08:30:10;15.00;14.67;13.00
35654;PMS1003;21773;50.010;19.972;2023-09-12T08:33:14;18.40;17.00;16.00
35654;PMS1003;21773;50.010;19.972;2023-09-12T08:36:18;18.00;18.00;16.00
35654;PMS1003;21773;50.010;19.972;2023-09-12T08:39:24;16.20;16.00;13.20
35654;PMS1003;21773;50.010;19.972;2023-09-12T08:42:29;15.00;15.00;14.00
35654;PMS1003;21773;50.010;19.972;2023-09-12T08:45:34;16.00;15.50;12.50
35654;PMS1003;21773;50.010;19.972;2023-09-12T08:48:38;16.00;16.00;14.00
35654;PMS1003;21773;50.010;19.972;2023-09-12T08:51:43;17.00;16.00;14.80
35654;PMS1003;21773;50.010;19.972;2023-09-12T08:54:48;17.00;16.00;15.00
35654;PMS1003;21773;50.010;19.972;2023-09-12T08:57:52;14.60;14.00;12.00
35654;PMS1003;21773;50.010;19.972;2023-09-12T09:00:58;15.00;14.00;12.40
35654;PMS1003;21773;50.010;19.972;2023-09-12T09:04:02;14.00;13.00;12.00
35654;PMS1003;21773;50.010;19.972;2023-09-12T09:07:06;15.00;13.00;12.00
35654;PMS1003;21773;50.010;19.972;2023-09-12T09:10:15;15.00;15.00;12.50
35654;PMS1003;21773;50.010;19.972;2023-09-12T09:13:27;14.00;14.00;13.00
35654;PMS1003;21773;50.010;19.972;2023-09-12T09:16:30;15.00;14.80;12.80
35654;PMS1003;21773;50.010;19.972;2023-09-12T09:19:39;17.60;15.40;12.60
35654;PMS1003;21773;50.010;19.972;2023-09-12T09:22:48;13.20;13.00;11.00
35654;PMS1003;21773;50.010;19.972;2023-09-12T09:26:00;18.00;16.80;14.80
35654;PMS1003;21773;50.010;19.972;2023-09-12T09:29:03;16.00;14.60;13.00
35654;PMS1003;21773;50.010;19.972;2023-09-12T09:32:08;15.00;15.00;13.00
35654;PMS1003;21773;50.010;19.972;2023-09-12T09:35:20;16.00;15.00;13.00
35654;PMS1003;21773;50.010;19.972;2023-09-12T09:38:23;17.00;16.00;15.00
35654;PMS1003;21773;50.010;19.972;2023-09-12T09:41:28;15.00;14.40;13.00
35654;PMS1003;21773;50.010;19.972;2023-09-12T09:44:31;17.00;15.00;13.60
35654;PMS1003;21773;50.010;19.972;2023-09-12T09:47:35;12.60;12.00;11.00
35654;PMS1003;21773;50.010;19.972;2023-09-12T09:50:38;14.80;13.60;12.00
35654;PMS1003;21773;50.010;19.972;2023-09-12T09:53:41;13.20;12.20;11.00
35654;PMS1003;21773;50.010;19.972;2023-09-12T09:56:47;18.00;16.00;12.00
35654;PMS1003;21773;50.010;19.972;2023-09-12T09:59:51;14.75;14.00;12.75
35654;PMS1003;21773;50.010;19.972;2023-09-12T10:02:55;17.75;16.00;13.75
35654;PMS1003;21773;50.010;19.972;2023-09-12T10:05:59;14.00;13.00;11.50
35654;PMS1003;21773;50.010;19.972;2023-09-12T10:09:08;15.75;13.75;12.75
35654;PMS1003;21773;50.010;19.972;2023-09-12T10:12:14;13.00;11.80;10.80
35654;PMS1003;21773;50.010;19.972;2023-09-12T10:15:19;14.20;13.80;12.20
35654;PMS1003;21773;50.010;19.972;2023-09-12T10:18:24;13.50;13.50;11.75
35654;PMS1003;21773;50.010;19.972;2023-09-12T10:21:31;14.60;13.00;12.00
35654;PMS1003;21773;50.010;19.972;2023-09-12T10:24:36;15.40;15.00;13.40
35654;PMS1003;21773;50.010;19.972;2023-09-12T10:27:44;16.50;15.50;13.50
35654;PMS1003;21773;50.010;19.972;2023-09-12T10:30:48;15.40;15.00;13.00
35654;PMS1003;21773;50.010;19.972;2023-09-12T10:33:52;13.80;12.80;11.00
35654;PMS1003;21773;50.010;19.972;2023-09-12T10:36:56;14.00;13.00;12.00
35654;PMS1003;21773;50.010;19.972;2023-09-12T10:40:01;13.40;13.00;12.00
35654;PMS1003;21773;50.010;19.972;2023-09-12T10:43:09;13.00;13.00;11.00
35654;PMS1003;21773;50.010;19.972;2023-09-12T10:46:14;13.00;12.00;11.00
35654;PMS1003;21773;50.010;19.972;2023-09-12T10:49:17;13.75;12.00;10.00
35654;PMS1003;21773;50.010;19.972;2023-09-12T10:52:24;10.75;9.75;8.75
35654;PMS1003;21773;50.010;19.972;2023-09-12T10:55:28;14.00;14.00;12.40
35654;PMS1003;21773;50.010;19.972;2023-09-12T10:58:33;13.80;12.20;10.20
35654;PMS1003;21773;50.010;19.972;2023-09-12T11:01:36;12.00;12.00;10.00
35654;PMS1003;21773;50.010;19.972;2023-09-12T11:04:40;12.60;11.60;10.60
35654;PMS1003;21773;50.010;19.972;2023-09-12T11:07:45;14.40;12.40;10.00
35654;PMS1003;21773;50.010;19.972;2023-09-12T11:14:24;13.40;13.00;11.60
35654;PMS1003;21773;50.010;19.972;2023-09-12T11:17:28;13.80;12.40;11.00
35654;PMS1003;21773;50.010;19.972;2023-09-12T11:20:50;12.80;11.80;10.00
35654;PMS1003;21773;50.010;19.972;2023-09-12T11:23:55;14.00;13.40;11.40
35654;PMS1003;21773;50.010;19.972;2023-09-12T11:26:59;14.40;12.00;11.00
35654;PMS1003;21773;50.010;19.972;2023-09-12T11:30:05;12.75;12.75;10.75
35654;PMS1003;21773;50.010;19.972;2023-09-12T11:33:10;14.80;13.00;12.00
35654;PMS1003;21773;50.010;19.972;2023-09-12T11:36:14;12.00;11.40;10.00
35654;PMS1003;21773;50.010;19.972;2023-09-12T11:39:28;12.80;10.80;9.80
35654;PMS1003;21773;50.010;19.972;2023-09-12T11:42:32;13.75;12.75;10.75
35654;PMS1003;21773;50.010;19.972;2023-09-12T11:45:43;13.00;12.00;11.00
35654;PMS1003;21773;50.010;19.972;2023-09-12T11:48:47;13.00;12.00;10.50
35654;PMS1003;21773;50.010;19.972;2023-09-12T11:51:52;13.00;13.00;11.00
35654;PMS1003;21773;50.010;19.972;2023-09-12T11:54:56;12.00;11.00;9.00
35654;PMS1003;21773;50.010;19.972;2023-09-12T11:57:59;13.00;12.20;10.00
35654;PMS1003;21773;50.010;19.972;2023-09-12T12:01:04;15.60;14.00;11.60
35654;PMS1003;21773;50.010;19.972;2023-09-12T12:04:07;12.80;11.80;10.20
35654;PMS1003;21773;50.010;19.972;2023-09-12T12:07:12;13.20;12.00;10.00
35654;PMS1003;21773;50.010;19.972;2023-09-12T12:10:15;12.00;11.50;9.50
35654;PMS1003;21773;50.010;19.972;2023-09-12T12:13:19;12.00;12.00;12.00
35654;PMS1003;21773;50.010;19.972;2023-09-12T12:16:26;13.80;13.80;13.00
35654;PMS1003;21773;50.010;19.972;2023-09-12T12:19:29;14.40;12.40;11.00
35654;PMS1003;21773;50.010;19.972;2023-09-12T12:22:33;14.40;13.00;11.00
35654;PMS1003;21773;50.010;19.972;2023-09-12T12:25:36;12.20;12.20;11.00
35654;PMS1003;21773;50.010;19.972;2023-09-12T12:28:40;12.00;12.00;11.00
35654;PMS1003;21773;50.010;19.972;2023-09-12T12:31:45;15.00;13.00;12.00
35654;PMS1003;21773;50.010;19.972;2023-09-12T12:34:48;13.00;12.00;11.00
35654;PMS1003;21773;50.010;19.972;2023-09-12T12:38:11;13.00;12.00;11.00
35654;PMS1003;21773;50.010;19.972;2023-09-12T12:41:16;11.80;10.80;9.80
35654;PMS1003;21773;50.010;19.972;2023-09-12T12:44:32;13.00;12.00;10.60
35654;PMS1003;21773;50.010;19.972;2023-09-12T12:47:38;11.50;11.00;10.00
35654;PMS1003;21773;50.010;19.972;2023-09-12T12:50:41;12.00;11.00;10.00
35654;PMS1003;21773;50.010;19.972;2023-09-12T12:53:45;14.40;14.00;12.00
35654;PMS1003;21773;50.010;19.972;2023-09-12T12:56:54;12.00;11.25;10.00
35654;PMS1003;21773;50.010;19.972;2023-09-12T12:59:58;12.40;11.60;11.40
35654;PMS1003;21773;50.010;19.972;2023-09-12T13:03:04;10.80;10.00;9.00
35654;PMS1003;21773;50.010;19.972;2023-09-12T13:06:07;11.80;11.00;10.00
35654;PMS1003;21773;50.010;19.972;2023-09-12T13:09:15;15.50;13.50;12.00
35654;PMS1003;21773;50.010;19.972;2023-09-12T13:12:19;13.00;11.60;10.00
35654;PMS1003;21773;50.010;19.972;2023-09-12T13:15:22;12.40;11.40;10.00
35654;PMS1003;21773;50.010;19.972;2023-09-12T13:18:27;12.00;11.00;10.00
35654;PMS1003;21773;50.010;19.972;2023-09-12T13:21:30;13.50;12.50;11.00
35654;PMS1003;21773;50.010;19.972;2023-09-12T13:24:35;13.00;12.00;11.40
35654;PMS1003;21773;50.010;19.972;2023-09-12T13:27:38;13.00;12.00;11.00
35654;PMS1003;21773;50.010;19.972;2023-09-12T13:30:41;12.00;12.00;11.00
35654;PMS1003;21773;50.010;19.972;2023-09-12T13:33:46;11.00;11.00;9.00
35654;PMS1003;21773;50.010;19.972;2023-09-12T13:36:49;11.00;11.00;10.00
35654;PMS1003;21773;50.010;19.972;2023-09-12T13:40:10;14.20;13.20;11.20
35654;PMS1003;21773;50.010;19.972;2023-09-12T13:43:14;16.00;14.00;12.00
35654;PMS1003;21773;50.010;19.972;2023-09-12T13:46:17;13.20;12.00;10.00
35654;PMS1003;21773;50.010;19.972;2023-09-12T13:49:22;14.25;13.25;11.25
35654;PMS1003;21773;50.010;19.972;2023-09-12T13:52:25;16.60;13.60;11.60
35654;PMS1003;21773;50.010;19.972;2023-09-12T13:55:29;14.00;13.00;11.25
35654;PMS1003;21773;50.010;19.972;2023-09-12T13:58:32;13.80;13.80;12.40
35654;PMS1003;21773;50.010;19.972;2023-09-12T14:01:42;14.00;13.00;11.80
35654;PMS1003;21773;50.010;19.972;2023-09-12T14:04:47;14.60;13.60;12.60
35654;PMS1003;21773;50.010;19.972;2023-09-12T14:08:00;14.60;14.00;12.00
35654;PMS1003;21773;50.010;19.972;2023-09-12T14:11:04;12.00;12.00;10.00
35654;PMS1003;21773;50.010;19.972;2023-09-12T14:14:13;16.67;15.67;13.67
35654;PMS1003;21773;50.010;19.972;2023-09-12T14:17:19;12.80;12.20;11.20
35654;PMS1003;21773;50.010;19.972;2023-09-12T14:20:25;15.40;14.00;11.00
35654;PMS1003;21773;50.010;19.972;2023-09-12T14:23:28;14.40;13.40;12.00
35654;PMS1003;21773;50.010;19.972;2023-09-12T14:26:33;14.00;13.00;12.00
35654;PMS1003;21773;50.010;19.972;2023-09-12T14:29:36;14.00;13.00;11.50
35654;PMS1003;21773;50.010;19.972;2023-09-12T14:32:39;18.60;16.60;14.00
35654;PMS1003;21773;50.010;19.972;2023-09-12T14:35:44;14.00;13.00;11.00
35654;PMS1003;21773;50.010;19.972;2023-09-12T14:38:48;16.00;16.00;13.00
35654;PMS1003;21773;50.010;19.972;2023-09-12T14:41:51;13.00;12.20;10.80
35654;PMS1003;21773;50.010;19.972;2023-09-12T14:44:56;17.75;16.50;15.00
35654;PMS1003;21773;50.010;19.972;2023-09-12T14:47:59;15.00;14.00;12.00
35654;PMS1003;21773;50.010;19.972;2023-09-12T14:51:04;17.00;16.00;14.00
35654;PMS1003;21773;50.010;19.972;2023-09-12T14:54:07;15.80;14.00;12.00
35654;PMS1003;21773;50.010;19.972;2023-09-12T14:57:10;15.00;14.00;12.00
35654;PMS1003;21773;50.010;19.972;2023-09-12T15:00:13;15.00;14.00;12.40
35654;PMS1003;21773;50.010;19.972;2023-09-12T15:03:17;16.40;16.00;14.40
35654;PMS1003;21773;50.010;19.972;2023-09-12T15:06:22;15.60;14.60;13.00
35654;PMS1003;21773;50.010;19.972;2023-09-12T15:09:26;14.20;14.20;12.00
35654;PMS1003;21773;50.010;19.972;2023-09-12T15:12:31;14.00;14.00;12.20
35654;PMS1003;21773;50.010;19.972;2023-09-12T15:15:36;12.60;12.00;10.00
35654;PMS1003;21773;50.010;19.972;2023-09-12T15:18:40;14.40;14.00;12.40
35654;PMS1003;21773;50.010;19.972;2023-09-12T15:21:46;13.00;13.00;11.00
35654;PMS1003;21773;50.010;19.972;2023-09-12T15:24:49;13.00;13.00;11.00
35654;PMS1003;21773;50.010;19.972;2023-09-12T15:27:53;15.80;13.00;11.80
35654;PMS1003;21773;50.010;19.972;2023-09-12T15:30:56;16.00;15.00;14.00
35654;PMS1003;21773;50.010;19.972;2023-09-12T15:34:02;13.00;13.00;11.60
35654;PMS1003;21773;50.010;19.972;2023-09-12T15:37:07;17.60;15.00;13.00
35654;PMS1003;21773;50.010;19.972;2023-09-12T15:40:23;17.00;15.00;12.00
35654;PMS1003;21773;50.010;19.972;2023-09-12T15:43:27;13.20;13.00;11.80
35654;PMS1003;21773;50.010;19.972;2023-09-12T15:46:30;16.20;14.80;12.80
35654;PMS1003;21773;50.010;19.972;2023-09-12T15:49:36;14.00;14.00;12.60
35654;PMS1003;21773;50.010;19.972;2023-09-12T15:52:41;16.00;15.20;13.20
35654;PMS1003;21773;50.010;19.972;2023-09-12T15:55:45;14.00;13.00;12.00
35654;PMS1003;21773;50.010;19.972;2023-09-12T15:58:50;16.60;16.60;14.00
35654;PMS1003;21773;50.010;19.972;2023-09-12T16:01:53;14.00;13.00;12.00
35654;PMS1003;21773;50.010;19.972;2023-09-12T16:04:57;18.00;16.00;14.25
35654;PMS1003;21773;50.010;19.972;2023-09-12T16:08:02;16.00;15.00;13.00
35654;PMS1003;21773;50.010;19.972;2023-09-12T16:11:05;16.00;16.00;13.40
35654;PMS1003;21773;50.010;19.972;2023-09-12T16:14:08;14.67;13.67;12.00
35654;PMS1003;21773;50.010;19.972;2023-09-12T16:17:12;17.00;16.00;13.25
35654;PMS1003;21773;50.010;19.972;2023-09-12T16:20:18;18.20;17.20;14.20
35654;PMS1003;21773;50.010;19.972;2023-09-12T16:23:23;17.00;16.00;13.50
35654;PMS1003;21773;50.010;19.972;2023-09-12T16:26:29;21.00;19.00;16.00
35654;PMS1003;21773;50.010;19.972;2023-09-12T16:29:32;20.00;18.60;16.60
35654;PMS1003;21773;50.010;19.972;2023-09-12T16:32:36;17.00;16.25;15.00
35654;PMS1003;21773;50.010;19.972;2023-09-12T16:35:40;19.60;18.60;17.60
35654;PMS1003;21773;50.010;19.972;2023-09-12T16:38:44;18.25;18.00;16.00
35654;PMS1003;21773;50.010;19.972;2023-09-12T16:41:48;16.00;16.00;15.00
35654;PMS1003;21773;50.010;19.972;2023-09-12T16:44:51;20.20;17.60;14.60
35654;PMS1003;21773;50.010;19.972;2023-09-12T16:47:54;18.00;17.00;15.00
35654;PMS1003;21773;50.010;19.972;2023-09-12T16:50:57;19.00;18.00;16.33
35654;PMS1003;21773;50.010;19.972;2023-09-12T16:54:02;19.00;16.00;14.00
35654;PMS1003;21773;50.010;19.972;2023-09-12T16:57:05;20.00;18.33;17.00
35654;PMS1003;21773;50.010;19.972;2023-09-12T17:00:14;19.00;18.50;15.75
35654;PMS1003;21773;50.010;19.972;2023-09-12T17:03:18;18.00;16.00;14.00
35654;PMS1003;21773;50.010;19.972;2023-09-12T17:06:21;20.60;19.40;18.00